sensor_id;sensor_type;location;lat;lon;timestamp;P1;durP1;ratioP1;P2;durP2;ratioP2
21352;SDS011;10834;52.268;6.770;2024-03-06T00:00:19;66.77;;;36.03;;
21352;SDS011;10834;52.268;6.770;2024-03-06T00:03:03;61.50;;;34.97;;
21352;SDS011;10834;52.268;6.770;2024-03-06T00:05:47;58.00;;;32.20;;
21352;SDS011;10834;52.268;6.770;2024-03-06T00:08:32;60.17;;;32.70;;
21352;SDS011;10834;52.268;6.770;2024-03-06T00:11:16;56.47;;;32.57;;
21352;SDS011;10834;52.268;6.770;2024-03-06T00:14:00;53.87;;;32.03;;
21352;SDS011;10834;52.268;6.770;2024-03-06T00:16:46;55.30;;;33.17;;
21352;SDS011;10834;52.268;6.770;2024-03-06T00:19:31;61.90;;;34.80;;
21352;SDS011;10834;52.268;6.770;2024-03-06T00:22:15;63.03;;;33.80;;
21352;SDS011;10834;52.268;6.770;2024-03-06T00:25:00;60.50;;;35.03;;
21352;SDS011;10834;52.268;6.770;2024-03-06T00:27:45;62.07;;;36.27;;
21352;SDS011;10834;52.268;6.770;2024-03-06T00:30:29;63.50;;;35.40;;
21352;SDS011;10834;52.268;6.770;2024-03-06T00:33:13;67.40;;;35.77;;
21352;SDS011;10834;52.268;6.770;2024-03-06T00:35:57;69.33;;;37.70;;
21352;SDS011;10834;52.268;6.770;2024-03-06T00:38:42;70.10;;;39.80;;
21352;SDS011;10834;52.268;6.770;2024-03-06T00:41:26;73.03;;;38.60;;
21352;SDS011;10834;52.268;6.770;2024-03-06T00:44:11;61.40;;;35.57;;
21352;SDS011;10834;52.268;6.770;2024-03-06T00:46:55;74.40;;;37.93;;
21352;SDS011;10834;52.268;6.770;2024-03-06T00:49:39;76.70;;;38.07;;
21352;SDS011;10834;52.268;6.770;2024-03-06T00:52:25;68.93;;;37.10;;
21352;SDS011;10834;52.268;6.770;2024-03-06T00:55:09;70.60;;;36.60;;
21352;SDS011;10834;52.268;6.770;2024-03-06T00:57:54;72.30;;;38.27;;
21352;SDS011;10834;52.268;6.770;2024-03-06T01:00:38;62.50;;;34.77;;
21352;SDS011;10834;52.268;6.770;2024-03-06T01:03:22;67.03;;;35.93;;
21352;SDS011;10834;52.268;6.770;2024-03-06T01:06:07;66.83;;;38.13;;
21352;SDS011;10834;52.268;6.770;2024-03-06T01:08:51;61.83;;;35.33;;
21352;SDS011;10834;52.268;6.770;2024-03-06T01:11:35;68.33;;;36.80;;
21352;SDS011;10834;52.268;6.770;2024-03-06T01:14:19;64.90;;;35.60;;
21352;SDS011;10834;52.268;6.770;2024-03-06T01:17:03;57.73;;;36.43;;
21352;SDS011;10834;52.268;6.770;2024-03-06T01:19:48;63.17;;;36.03;;
21352;SDS011;10834;52.268;6.770;2024-03-06T01:22:33;75.47;;;38.90;;
21352;SDS011;10834;52.268;6.770;2024-03-06T01:25:18;67.33;;;36.47;;
21352;SDS011;10834;52.268;6.770;2024-03-06T01:28:02;69.10;;;34.60;;
21352;SDS011;10834;52.268;6.770;2024-03-06T01:30:46;68.23;;;37.27;;
21352;SDS011;10834;52.268;6.770;2024-03-06T01:33:30;64.13;;;35.60;;
21352;SDS011;10834;52.268;6.770;2024-03-06T01:36:15;62.10;;;34.60;;
21352;SDS011;10834;52.268;6.770;2024-03-06T01:38:59;69.43;;;36.20;;
21352;SDS011;10834;52.268;6.770;2024-03-06T01:41:46;68.73;;;36.90;;
21352;SDS011;10834;52.268;6.770;2024-03-06T01:44:31;72.97;;;38.10;;
21352;SDS011;10834;52.268;6.770;2024-03-06T01:47:15;69.53;;;35.83;;
21352;SDS011;10834;52.268;6.770;2024-03-06T01:49:59;71.70;;;37.97;;
21352;SDS011;10834;52.268;6.770;2024-03-06T01:52:45;66.87;;;35.73;;
21352;SDS011;10834;52.268;6.770;2024-03-06T01:55:31;70.80;;;38.03;;
21352;SDS011;10834;52.268;6.770;2024-03-06T01:58:15;74.30;;;38.83;;
21352;SDS011;10834;52.268;6.770;2024-03-06T02:00:59;72.07;;;38.90;;
21352;SDS011;10834;52.268;6.770;2024-03-06T02:03:44;68.23;;;37.77;;
21352;SDS011;10834;52.268;6.770;2024-03-06T02:06:29;68.93;;;37.30;;
21352;SDS011;10834;52.268;6.770;2024-03-06T02:09:14;71.93;;;38.50;;
21352;SDS011;10834;52.268;6.770;2024-03-06T02:11:58;68.70;;;37.77;;
21352;SDS011;10834;52.268;6.770;2024-03-06T02:14:43;72.40;;;38.60;;
21352;SDS011;10834;52.268;6.770;2024-03-06T02:17:27;74.30;;;38.73;;
21352;SDS011;10834;52.268;6.770;2024-03-06T02:20:12;71.20;;;39.17;;
21352;SDS011;10834;52.268;6.770;2024-03-06T02:22:57;72.93;;;38.63;;
21352;SDS011;10834;52.268;6.770;2024-03-06T02:25:41;69.13;;;38.70;;
21352;SDS011;10834;52.268;6.770;2024-03-06T02:28:25;72.23;;;37.93;;
21352;SDS011;10834;52.268;6.770;2024-03-06T02:31:10;74.17;;;39.80;;
21352;SDS011;10834;52.268;6.770;2024-03-06T02:33:55;74.47;;;40.40;;
21352;SDS011;10834;52.268;6.770;2024-03-06T02:36:39;78.17;;;40.57;;
21352;SDS011;10834;52.268;6.770;2024-03-06T02:39:23;78.60;;;40.00;;
21352;SDS011;10834;52.268;6.770;2024-03-06T02:42:07;76.73;;;39.93;;
21352;SDS011;10834;52.268;6.770;2024-03-06T02:44:51;79.77;;;41.23;;
21352;SDS011;10834;52.268;6.770;2024-03-06T02:47:35;80.47;;;42.83;;
21352;SDS011;10834;52.268;6.770;2024-03-06T02:50:19;82.50;;;42.27;;
21352;SDS011;10834;52.268;6.770;2024-03-06T02:53:04;82.03;;;42.43;;
21352;SDS011;10834;52.268;6.770;2024-03-06T02:55:49;78.77;;;39.57;;
21352;SDS011;10834;52.268;6.770;2024-03-06T02:58:34;78.97;;;41.03;;
21352;SDS011;10834;52.268;6.770;2024-03-06T03:01:19;81.53;;;43.27;;
21352;SDS011;10834;52.268;6.770;2024-03-06T03:04:03;77.97;;;39.70;;
21352;SDS011;10834;52.268;6.770;2024-03-06T03:06:47;77.03;;;41.93;;
21352;SDS011;10834;52.268;6.770;2024-03-06T03:09:31;83.03;;;41.10;;
21352;SDS011;10834;52.268;6.770;2024-03-06T03:12:15;81.03;;;42.17;;
21352;SDS011;10834;52.268;6.770;2024-03-06T03:15:00;77.93;;;42.73;;
21352;SDS011;10834;52.268;6.770;2024-03-06T03:17:44;86.50;;;40.30;;
21352;SDS011;10834;52.268;6.770;2024-03-06T03:20:29;92.03;;;42.80;;
21352;SDS011;10834;52.268;6.770;2024-03-06T03:23:13;87.43;;;44.57;;
21352;SDS011;10834;52.268;6.770;2024-03-06T03:25:59;87.40;;;43.13;;
21352;SDS011;10834;52.268;6.770;2024-03-06T03:28:43;81.47;;;43.50;;
21352;SDS011;10834;52.268;6.770;2024-03-06T03:31:27;87.77;;;42.50;;
21352;SDS011;10834;52.268;6.770;2024-03-06T03:34:11;93.90;;;45.10;;
21352;SDS011;10834;52.268;6.770;2024-03-06T03:36:55;83.83;;;43.60;;
21352;SDS011;10834;52.268;6.770;2024-03-06T03:39:40;94.37;;;42.57;;
21352;SDS011;10834;52.268;6.770;2024-03-06T03:42:25;86.83;;;42.47;;
21352;SDS011;10834;52.268;6.770;2024-03-06T03:45:09;85.20;;;42.17;;
21352;SDS011;10834;52.268;6.770;2024-03-06T03:47:54;88.40;;;45.03;;
21352;SDS011;10834;52.268;6.770;2024-03-06T03:50:38;87.73;;;44.10;;
21352;SDS011;10834;52.268;6.770;2024-03-06T03:53:22;84.23;;;44.07;;
21352;SDS011;10834;52.268;6.770;2024-03-06T03:56:06;83.17;;;44.30;;
21352;SDS011;10834;52.268;6.770;2024-03-06T03:58:50;89.47;;;44.13;;
21352;SDS011;10834;52.268;6.770;2024-03-06T04:01:34;82.87;;;43.87;;
21352;SDS011;10834;52.268;6.770;2024-03-06T04:04:18;88.73;;;44.10;;
21352;SDS011;10834;52.268;6.770;2024-03-06T04:07:02;91.57;;;44.07;;
21352;SDS011;10834;52.268;6.770;2024-03-06T04:09:47;86.93;;;43.57;;
21352;SDS011;10834;52.268;6.770;2024-03-06T04:12:32;76.43;;;41.80;;
21352;SDS011;10834;52.268;6.770;2024-03-06T04:15:16;82.30;;;40.07;;
21352;SDS011;10834;52.268;6.770;2024-03-06T04:18:01;78.07;;;40.57;;
21352;SDS011;10834;52.268;6.770;2024-03-06T04:20:45;72.10;;;40.50;;
21352;SDS011;10834;52.268;6.770;2024-03-06T04:23:29;80.13;;;39.93;;
21352;SDS011;10834;52.268;6.770;2024-03-06T04:26:13;78.83;;;41.47;;
21352;SDS011;10834;52.268;6.770;2024-03-06T04:28:58;78.23;;;42.77;;
21352;SDS011;10834;52.268;6.770;2024-03-06T04:31:42;72.87;;;39.80;;
21352;SDS011;10834;52.268;6.770;2024-03-06T04:34:26;80.77;;;41.57;;
21352;SDS011;10834;52.268;6.770;2024-03-06T04:37:11;78.40;;;42.33;;
21352;SDS011;10834;52.268;6.770;2024-03-06T04:39:55;86.77;;;44.30;;
21352;SDS011;10834;52.268;6.770;2024-03-06T04:42:39;86.43;;;43.07;;
21352;SDS011;10834;52.268;6.770;2024-03-06T04:45:23;84.50;;;42.50;;
21352;SDS011;10834;52.268;6.770;2024-03-06T04:48:07;81.93;;;42.63;;
21352;SDS011;10834;52.268;6.770;2024-03-06T04:50:51;82.77;;;42.30;;
21352;SDS011;10834;52.268;6.770;2024-03-06T04:53:36;73.70;;;41.37;;
21352;SDS011;10834;52.268;6.770;2024-03-06T04:56:21;78.17;;;41.30;;
21352;SDS011;10834;52.268;6.770;2024-03-06T04:59:06;79.37;;;40.57;;
21352;SDS011;10834;52.268;6.770;2024-03-06T05:01:50;76.70;;;40.93;;
21352;SDS011;10834;52.268;6.770;2024-03-06T05:04:34;83.97;;;42.00;;
21352;SDS011;10834;52.268;6.770;2024-03-06T05:07:19;70.63;;;39.20;;
21352;SDS011;10834;52.268;6.770;2024-03-06T05:10:03;82.10;;;42.10;;
21352;SDS011;10834;52.268;6.770;2024-03-06T05:12:47;88.97;;;43.23;;
21352;SDS011;10834;52.268;6.770;2024-03-06T05:15:31;89.53;;;44.27;;
21352;SDS011;10834;52.268;6.770;2024-03-06T05:18:16;89.07;;;41.50;;
21352;SDS011;10834;52.268;6.770;2024-03-06T05:21:00;79.93;;;38.60;;
21352;SDS011;10834;52.268;6.770;2024-03-06T05:23:44;83.93;;;42.67;;
21352;SDS011;10834;52.268;6.770;2024-03-06T05:26:28;87.23;;;41.37;;
21352;SDS011;10834;52.268;6.770;2024-03-06T05:29:12;81.33;;;42.17;;
21352;SDS011;10834;52.268;6.770;2024-03-06T05:31:56;83.33;;;40.47;;
21352;SDS011;10834;52.268;6.770;2024-03-06T05:34:41;84.80;;;41.27;;
21352;SDS011;10834;52.268;6.770;2024-03-06T05:37:25;86.17;;;42.97;;
21352;SDS011;10834;52.268;6.770;2024-03-06T05:40:09;87.53;;;44.13;;
21352;SDS011;10834;52.268;6.770;2024-03-06T05:42:55;80.43;;;40.87;;
21352;SDS011;10834;52.268;6.770;2024-03-06T05:45:39;91.87;;;41.80;;
21352;SDS011;10834;52.268;6.770;2024-03-06T05:48:23;84.83;;;41.50;;
21352;SDS011;10834;52.268;6.770;2024-03-06T05:51:07;77.93;;;40.47;;
21352;SDS011;10834;52.268;6.770;2024-03-06T05:53:53;85.47;;;41.13;;
21352;SDS011;10834;52.268;6.770;2024-03-06T05:56:37;69.53;;;36.77;;
21352;SDS011;10834;52.268;6.770;2024-03-06T05:59:22;71.23;;;38.13;;
21352;SDS011;10834;52.268;6.770;2024-03-06T06:02:08;70.30;;;37.10;;
21352;SDS011;10834;52.268;6.770;2024-03-06T06:04:52;79.07;;;39.67;;
21352;SDS011;10834;52.268;6.770;2024-03-06T06:07:36;81.00;;;38.30;;
21352;SDS011;10834;52.268;6.770;2024-03-06T06:10:21;79.10;;;39.13;;
21352;SDS011;10834;52.268;6.770;2024-03-06T06:13:05;77.13;;;39.03;;
21352;SDS011;10834;52.268;6.770;2024-03-06T06:15:49;80.47;;;40.07;;
21352;SDS011;10834;52.268;6.770;2024-03-06T06:18:33;77.23;;;39.17;;
21352;SDS011;10834;52.268;6.770;2024-03-06T06:21:18;77.57;;;39.87;;
21352;SDS011;10834;52.268;6.770;2024-03-06T06:24:03;77.10;;;39.77;;
21352;SDS011;10834;52.268;6.770;2024-03-06T06:26:47;75.67;;;39.40;;
21352;SDS011;10834;52.268;6.770;2024-03-06T06:29:32;72.13;;;38.43;;
21352;SDS011;10834;52.268;6.770;2024-03-06T06:32:16;81.93;;;40.13;;
21352;SDS011;10834;52.268;6.770;2024-03-06T06:35:00;82.20;;;40.93;;
21352;SDS011;10834;52.268;6.770;2024-03-06T06:37:44;93.23;;;41.03;;
21352;SDS011;10834;52.268;6.770;2024-03-06T06:40:29;79.33;;;39.63;;
21352;SDS011;10834;52.268;6.770;2024-03-06T06:43:14;80.80;;;40.80;;
21352;SDS011;10834;52.268;6.770;2024-03-06T06:45:58;87.30;;;41.07;;
21352;SDS011;10834;52.268;6.770;2024-03-06T06:48:42;85.00;;;40.53;;
21352;SDS011;10834;52.268;6.770;2024-03-06T06:51:26;73.47;;;38.13;;
21352;SDS011;10834;52.268;6.770;2024-03-06T06:54:11;84.13;;;39.27;;
21352;SDS011;10834;52.268;6.770;2024-03-06T06:56:55;80.00;;;41.00;;
21352;SDS011;10834;52.268;6.770;2024-03-06T06:59:39;79.53;;;40.63;;
21352;SDS011;10834;52.268;6.770;2024-03-06T07:02:23;82.70;;;40.93;;
21352;SDS011;10834;52.268;6.770;2024-03-06T07:05:07;79.50;;;37.43;;
21352;SDS011;10834;52.268;6.770;2024-03-06T07:07:52;83.37;;;40.30;;
21352;SDS011;10834;52.268;6.770;2024-03-06T07:10:36;79.23;;;39.23;;
21352;SDS011;10834;52.268;6.770;2024-03-06T07:13:21;81.17;;;38.87;;
21352;SDS011;10834;52.268;6.770;2024-03-06T07:16:05;77.23;;;37.93;;
21352;SDS011;10834;52.268;6.770;2024-03-06T07:18:49;80.77;;;42.03;;
21352;SDS011;10834;52.268;6.770;2024-03-06T07:21:33;78.07;;;40.40;;
21352;SDS011;10834;52.268;6.770;2024-03-06T07:24:17;78.73;;;40.03;;
21352;SDS011;10834;52.268;6.770;2024-03-06T07:27:01;83.33;;;41.17;;
21352;SDS011;10834;52.268;6.770;2024-03-06T07:29:46;77.13;;;39.77;;
21352;SDS011;10834;52.268;6.770;2024-03-06T07:32:30;82.00;;;39.77;;
21352;SDS011;10834;52.268;6.770;2024-03-06T07:35:14;82.13;;;40.43;;
21352;SDS011;10834;52.268;6.770;2024-03-06T07:37:59;81.47;;;40.00;;
21352;SDS011;10834;52.268;6.770;2024-03-06T07:40:43;74.23;;;38.30;;
21352;SDS011;10834;52.268;6.770;2024-03-06T07:43:27;74.40;;;36.30;;
21352;SDS011;10834;52.268;6.770;2024-03-06T07:46:11;80.40;;;38.93;;
21352;SDS011;10834;52.268;6.770;2024-03-06T07:48:56;69.33;;;38.37;;
21352;SDS011;10834;52.268;6.770;2024-03-06T07:51:40;73.43;;;37.67;;
21352;SDS011;10834;52.268;6.770;2024-03-06T07:54:25;68.47;;;38.20;;
21352;SDS011;10834;52.268;6.770;2024-03-06T07:57:09;74.27;;;37.33;;
21352;SDS011;10834;52.268;6.770;2024-03-06T07:59:53;65.90;;;37.23;;
21352;SDS011;10834;52.268;6.770;2024-03-06T08:02:38;73.30;;;36.37;;
21352;SDS011;10834;52.268;6.770;2024-03-06T08:05:26;72.63;;;39.50;;
21352;SDS011;10834;52.268;6.770;2024-03-06T08:08:10;74.03;;;37.43;;
21352;SDS011;10834;52.268;6.770;2024-03-06T08:10:54;72.77;;;38.20;;
21352;SDS011;10834;52.268;6.770;2024-03-06T08:13:38;82.00;;;40.90;;
21352;SDS011;10834;52.268;6.770;2024-03-06T08:16:22;77.27;;;38.80;;
21352;SDS011;10834;52.268;6.770;2024-03-06T08:19:07;81.73;;;41.70;;
21352;SDS011;10834;52.268;6.770;2024-03-06T08:21:51;72.27;;;40.77;;
21352;SDS011;10834;52.268;6.770;2024-03-06T08:24:35;73.70;;;39.13;;
21352;SDS011;10834;52.268;6.770;2024-03-06T08:27:19;72.77;;;38.87;;
21352;SDS011;10834;52.268;6.770;2024-03-06T08:30:04;70.97;;;39.37;;
21352;SDS011;10834;52.268;6.770;2024-03-06T08:32:50;61.73;;;33.87;;
21352;SDS011;10834;52.268;6.770;2024-03-06T08:35:35;64.43;;;34.83;;
21352;SDS011;10834;52.268;6.770;2024-03-06T08:38:19;63.80;;;35.53;;
21352;SDS011;10834;52.268;6.770;2024-03-06T08:41:03;72.27;;;38.00;;
21352;SDS011;10834;52.268;6.770;2024-03-06T08:43:48;70.17;;;35.90;;
21352;SDS011;10834;52.268;6.770;2024-03-06T08:46:32;65.37;;;35.37;;
21352;SDS011;10834;52.268;6.770;2024-03-06T08:49:16;67.67;;;34.60;;
21352;SDS011;10834;52.268;6.770;2024-03-06T08:52:01;66.40;;;36.03;;
21352;SDS011;10834;52.268;6.770;2024-03-06T08:54:45;63.17;;;33.77;;
21352;SDS011;10834;52.268;6.770;2024-03-06T08:57:29;62.83;;;34.63;;
21352;SDS011;10834;52.268;6.770;2024-03-06T09:00:14;57.80;;;33.73;;
21352;SDS011;10834;52.268;6.770;2024-03-06T09:03:00;59.37;;;31.97;;
21352;SDS011;10834;52.268;6.770;2024-03-06T09:05:44;55.40;;;33.63;;
21352;SDS011;10834;52.268;6.770;2024-03-06T09:08:28;59.10;;;32.77;;
21352;SDS011;10834;52.268;6.770;2024-03-06T09:11:13;58.40;;;32.47;;
21352;SDS011;10834;52.268;6.770;2024-03-06T09:13:58;54.53;;;32.07;;
21352;SDS011;10834;52.268;6.770;2024-03-06T09:16:42;54.00;;;30.47;;
21352;SDS011;10834;52.268;6.770;2024-03-06T09:19:26;52.20;;;30.37;;
21352;SDS011;10834;52.268;6.770;2024-03-06T09:22:12;47.60;;;29.23;;
21352;SDS011;10834;52.268;6.770;2024-03-06T09:24:56;50.60;;;30.63;;
21352;SDS011;10834;52.268;6.770;2024-03-06T09:27:40;53.73;;;31.77;;
21352;SDS011;10834;52.268;6.770;2024-03-06T09:30:25;54.77;;;30.93;;
21352;SDS011;10834;52.268;6.770;2024-03-06T09:33:09;56.57;;;32.60;;
21352;SDS011;10834;52.268;6.770;2024-03-06T09:35:53;51.33;;;31.10;;
21352;SDS011;10834;52.268;6.770;2024-03-06T09:38:37;49.03;;;30.20;;
21352;SDS011;10834;52.268;6.770;2024-03-06T09:41:23;51.47;;;31.87;;
21352;SDS011;10834;52.268;6.770;2024-03-06T09:44:07;48.27;;;30.47;;
21352;SDS011;10834;52.268;6.770;2024-03-06T09:46:51;49.10;;;30.23;;
21352;SDS011;10834;52.268;6.770;2024-03-06T09:49:36;51.30;;;30.33;;
21352;SDS011;10834;52.268;6.770;2024-03-06T09:52:21;47.00;;;28.00;;
21352;SDS011;10834;52.268;6.770;2024-03-06T09:55:10;50.43;;;31.47;;
21352;SDS011;10834;52.268;6.770;2024-03-06T09:57:56;46.50;;;29.83;;
21352;SDS011;10834;52.268;6.770;2024-03-06T10:00:40;44.43;;;29.17;;
21352;SDS011;10834;52.268;6.770;2024-03-06T10:03:24;49.93;;;30.23;;
21352;SDS011;10834;52.268;6.770;2024-03-06T10:06:09;46.77;;;29.53;;
21352;SDS011;10834;52.268;6.770;2024-03-06T10:08:53;51.60;;;30.53;;
21352;SDS011;10834;52.268;6.770;2024-03-06T10:11:46;49.60;;;29.60;;
21352;SDS011;10834;52.268;6.770;2024-03-06T10:14:30;50.13;;;31.37;;
21352;SDS011;10834;52.268;6.770;2024-03-06T10:17:14;45.77;;;29.47;;
21352;SDS011;10834;52.268;6.770;2024-03-06T10:20:22;44.40;;;28.77;;
21352;SDS011;10834;52.268;6.770;2024-03-06T10:23:07;40.87;;;28.80;;
21352;SDS011;10834;52.268;6.770;2024-03-06T10:25:52;38.37;;;26.27;;
21352;SDS011;10834;52.268;6.770;2024-03-06T10:28:37;46.65;;;28.02;;
21352;SDS011;10834;52.268;6.770;2024-03-06T10:31:28;45.20;;;28.60;;
21352;SDS011;10834;52.268;6.770;2024-03-06T10:34:12;41.67;;;28.03;;
21352;SDS011;10834;52.268;6.770;2024-03-06T10:37:01;48.80;;;30.25;;
21352;SDS011;10834;52.268;6.770;2024-03-06T10:39:49;38.97;;;26.60;;
21352;SDS011;10834;52.268;6.770;2024-03-06T10:42:39;42.40;;;28.63;;
21352;SDS011;10834;52.268;6.770;2024-03-06T10:45:48;41.67;;;26.40;;
21352;SDS011;10834;52.268;6.770;2024-03-06T10:48:32;44.30;;;28.07;;
21352;SDS011;10834;52.268;6.770;2024-03-06T10:51:18;43.80;;;28.13;;
21352;SDS011;10834;52.268;6.770;2024-03-06T10:54:04;41.60;;;28.23;;
21352;SDS011;10834;52.268;6.770;2024-03-06T10:56:50;40.45;;;27.88;;
21352;SDS011;10834;52.268;6.770;2024-03-06T10:59:36;39.30;;;28.45;;
21352;SDS011;10834;52.268;6.770;2024-03-06T11:02:20;45.70;;;28.30;;
21352;SDS011;10834;52.268;6.770;2024-03-06T11:05:07;40.10;;;26.50;;
21352;SDS011;10834;52.268;6.770;2024-03-06T11:07:52;44.45;;;28.77;;
21352;SDS011;10834;52.268;6.770;2024-03-06T11:10:37;39.07;;;26.40;;
21352;SDS011;10834;52.268;6.770;2024-03-06T11:13:23;39.83;;;27.00;;
21352;SDS011;10834;52.268;6.770;2024-03-06T11:16:09;38.72;;;24.83;;
21352;SDS011;10834;52.268;6.770;2024-03-06T11:19:03;40.47;;;28.48;;
21352;SDS011;10834;52.268;6.770;2024-03-06T11:21:49;37.10;;;24.70;;
21352;SDS011;10834;52.268;6.770;2024-03-06T11:24:33;38.28;;;26.13;;
21352;SDS011;10834;52.268;6.770;2024-03-06T11:27:18;37.50;;;26.02;;
21352;SDS011;10834;52.268;6.770;2024-03-06T11:30:11;39.47;;;25.88;;
21352;SDS011;10834;52.268;6.770;2024-03-06T11:32:57;39.57;;;25.53;;
21352;SDS011;10834;52.268;6.770;2024-03-06T11:35:43;45.43;;;26.30;;
21352;SDS011;10834;52.268;6.770;2024-03-06T11:38:48;38.27;;;24.90;;
21352;SDS011;10834;52.268;6.770;2024-03-06T11:41:50;34.83;;;24.67;;
21352;SDS011;10834;52.268;6.770;2024-03-06T11:44:35;38.93;;;24.87;;
21352;SDS011;10834;52.268;6.770;2024-03-06T11:47:20;36.60;;;24.27;;
21352;SDS011;10834;52.268;6.770;2024-03-06T11:50:04;38.07;;;24.83;;
21352;SDS011;10834;52.268;6.770;2024-03-06T11:52:52;37.73;;;26.03;;
21352;SDS011;10834;52.268;6.770;2024-03-06T11:55:36;36.83;;;24.87;;
21352;SDS011;10834;52.268;6.770;2024-03-06T11:58:20;39.03;;;26.10;;
21352;SDS011;10834;52.268;6.770;2024-03-06T12:01:05;38.73;;;24.93;;
21352;SDS011;10834;52.268;6.770;2024-03-06T12:03:49;44.63;;;25.93;;
21352;SDS011;10834;52.268;6.770;2024-03-06T12:06:34;39.83;;;25.43;;
21352;SDS011;10834;52.268;6.770;2024-03-06T12:09:19;39.90;;;26.17;;
21352;SDS011;10834;52.268;6.770;2024-03-06T12:12:03;45.17;;;26.03;;
21352;SDS011;10834;52.268;6.770;2024-03-06T12:14:59;40.97;;;26.10;;
21352;SDS011;10834;52.268;6.770;2024-03-06T12:17:48;44.60;;;26.53;;
21352;SDS011;10834;52.268;6.770;2024-03-06T12:20:34;42.57;;;26.47;;
21352;SDS011;10834;52.268;6.770;2024-03-06T12:23:24;40.43;;;26.23;;
21352;SDS011;10834;52.268;6.770;2024-03-06T12:26:11;42.90;;;26.10;;
21352;SDS011;10834;52.268;6.770;2024-03-06T12:29:09;37.47;;;24.33;;
21352;SDS011;10834;52.268;6.770;2024-03-06T12:31:54;43.70;;;26.83;;
21352;SDS011;10834;52.268;6.770;2024-03-06T12:34:40;45.53;;;26.47;;
21352;SDS011;10834;52.268;6.770;2024-03-06T12:37:31;39.50;;;24.73;;
21352;SDS011;10834;52.268;6.770;2024-03-06T12:40:16;38.07;;;25.20;;
21352;SDS011;10834;52.268;6.770;2024-03-06T12:43:00;40.63;;;23.53;;
21352;SDS011;10834;52.268;6.770;2024-03-06T12:45:46;41.87;;;24.77;;
21352;SDS011;10834;52.268;6.770;2024-03-06T12:48:31;38.77;;;24.67;;
21352;SDS011;10834;52.268;6.770;2024-03-06T12:51:16;41.27;;;23.70;;
21352;SDS011;10834;52.268;6.770;2024-03-06T12:54:01;34.80;;;22.27;;
21352;SDS011;10834;52.268;6.770;2024-03-06T12:56:45;38.70;;;22.90;;
21352;SDS011;10834;52.268;6.770;2024-03-06T12:59:29;39.23;;;21.30;;
21352;SDS011;10834;52.268;6.770;2024-03-06T13:02:13;30.47;;;21.47;;
21352;SDS011;10834;52.268;6.770;2024-03-06T13:04:57;31.33;;;20.53;;
21352;SDS011;10834;52.268;6.770;2024-03-06T13:07:42;30.37;;;20.93;;
21352;SDS011;10834;52.268;6.770;2024-03-06T13:10:27;34.17;;;23.20;;
21352;SDS011;10834;52.268;6.770;2024-03-06T13:13:11;31.40;;;21.27;;
21352;SDS011;10834;52.268;6.770;2024-03-06T13:15:55;31.57;;;20.97;;
21352;SDS011;10834;52.268;6.770;2024-03-06T13:18:40;33.23;;;20.87;;
21352;SDS011;10834;52.268;6.770;2024-03-06T13:21:24;32.20;;;21.10;;
21352;SDS011;10834;52.268;6.770;2024-03-06T13:24:08;31.97;;;20.87;;
21352;SDS011;10834;52.268;6.770;2024-03-06T13:26:52;30.57;;;20.50;;
21352;SDS011;10834;52.268;6.770;2024-03-06T13:29:36;29.77;;;21.00;;
21352;SDS011;10834;52.268;6.770;2024-03-06T13:32:20;32.53;;;19.40;;
21352;SDS011;10834;52.268;6.770;2024-03-06T13:35:05;26.30;;;18.17;;
21352;SDS011;10834;52.268;6.770;2024-03-06T13:37:56;28.67;;;17.90;;
21352;SDS011;10834;52.268;6.770;2024-03-06T13:40:40;23.10;;;16.33;;
21352;SDS011;10834;52.268;6.770;2024-03-06T13:43:24;25.53;;;17.10;;
21352;SDS011;10834;52.268;6.770;2024-03-06T13:46:08;29.33;;;19.10;;
21352;SDS011;10834;52.268;6.770;2024-03-06T13:48:53;28.20;;;18.07;;
21352;SDS011;10834;52.268;6.770;2024-03-06T13:51:37;27.77;;;19.00;;
21352;SDS011;10834;52.268;6.770;2024-03-06T13:54:21;27.50;;;18.73;;
21352;SDS011;10834;52.268;6.770;2024-03-06T13:57:05;29.33;;;18.03;;
21352;SDS011;10834;52.268;6.770;2024-03-06T13:59:51;26.07;;;18.13;;
21352;SDS011;10834;52.268;6.770;2024-03-06T14:02:35;32.00;;;20.17;;
21352;SDS011;10834;52.268;6.770;2024-03-06T14:05:19;30.73;;;18.33;;
21352;SDS011;10834;52.268;6.770;2024-03-06T14:08:08;29.57;;;18.37;;
21352;SDS011;10834;52.268;6.770;2024-03-06T14:10:55;30.90;;;19.43;;
21352;SDS011;10834;52.268;6.770;2024-03-06T14:13:40;27.73;;;17.97;;
21352;SDS011;10834;52.268;6.770;2024-03-06T14:16:24;25.50;;;17.70;;
21352;SDS011;10834;52.268;6.770;2024-03-06T14:19:10;28.63;;;18.03;;
21352;SDS011;10834;52.268;6.770;2024-03-06T14:21:55;27.53;;;18.40;;
21352;SDS011;10834;52.268;6.770;2024-03-06T14:24:39;28.03;;;17.60;;
21352;SDS011;10834;52.268;6.770;2024-03-06T14:27:23;29.80;;;18.00;;
21352;SDS011;10834;52.268;6.770;2024-03-06T14:30:07;26.30;;;18.77;;
21352;SDS011;10834;52.268;6.770;2024-03-06T14:32:52;29.43;;;19.07;;
21352;SDS011;10834;52.268;6.770;2024-03-06T14:35:37;30.93;;;19.37;;
21352;SDS011;10834;52.268;6.770;2024-03-06T14:38:22;32.77;;;18.57;;
21352;SDS011;10834;52.268;6.770;2024-03-06T14:41:06;30.33;;;19.27;;
21352;SDS011;10834;52.268;6.770;2024-03-06T14:43:51;29.60;;;19.43;;
21352;SDS011;10834;52.268;6.770;2024-03-06T14:46:35;29.20;;;19.10;;
21352;SDS011;10834;52.268;6.770;2024-03-06T14:49:19;29.73;;;18.07;;
21352;SDS011;10834;52.268;6.770;2024-03-06T14:52:03;25.07;;;16.73;;
21352;SDS011;10834;52.268;6.770;2024-03-06T14:54:49;24.97;;;16.27;;
21352;SDS011;10834;52.268;6.770;2024-03-06T14:57:33;26.90;;;17.17;;
21352;SDS011;10834;52.268;6.770;2024-03-06T15:00:17;30.07;;;19.50;;
21352;SDS011;10834;52.268;6.770;2024-03-06T15:03:04;26.37;;;16.77;;
21352;SDS011;10834;52.268;6.770;2024-03-06T15:05:48;25.40;;;17.63;;
21352;SDS011;10834;52.268;6.770;2024-03-06T15:08:33;28.42;;;18.10;;
21352;SDS011;10834;52.268;6.770;2024-03-06T15:11:20;27.03;;;17.00;;
21352;SDS011;10834;52.268;6.770;2024-03-06T15:14:07;26.70;;;17.33;;
21352;SDS011;10834;52.268;6.770;2024-03-06T15:16:52;26.07;;;16.43;;
21352;SDS011;10834;52.268;6.770;2024-03-06T15:19:36;23.90;;;17.07;;
21352;SDS011;10834;52.268;6.770;2024-03-06T15:22:21;26.90;;;17.07;;
21352;SDS011;10834;52.268;6.770;2024-03-06T15:25:05;25.27;;;16.97;;
21352;SDS011;10834;52.268;6.770;2024-03-06T15:27:50;24.60;;;15.20;;
21352;SDS011;10834;52.268;6.770;2024-03-06T15:30:35;27.83;;;17.07;;
21352;SDS011;10834;52.268;6.770;2024-03-06T15:33:20;27.50;;;16.07;;
21352;SDS011;10834;52.268;6.770;2024-03-06T15:36:04;25.47;;;15.07;;
21352;SDS011;10834;52.268;6.770;2024-03-06T15:38:49;23.63;;;15.20;;
21352;SDS011;10834;52.268;6.770;2024-03-06T15:41:33;32.47;;;19.77;;
21352;SDS011;10834;52.268;6.770;2024-03-06T15:44:18;26.67;;;17.10;;
21352;SDS011;10834;52.268;6.770;2024-03-06T15:47:02;26.00;;;16.77;;
21352;SDS011;10834;52.268;6.770;2024-03-06T15:49:47;33.43;;;18.33;;
21352;SDS011;10834;52.268;6.770;2024-03-06T15:52:32;32.50;;;17.93;;
21352;SDS011;10834;52.268;6.770;2024-03-06T15:55:16;29.97;;;18.60;;
21352;SDS011;10834;52.268;6.770;2024-03-06T15:58:01;28.10;;;16.97;;
21352;SDS011;10834;52.268;6.770;2024-03-06T16:00:48;29.40;;;16.80;;
21352;SDS011;10834;52.268;6.770;2024-03-06T16:03:33;22.83;;;15.67;;